sensor_id;sensor_type;location;lat;lon;timestamp;P1;durP1;ratioP1;P2;durP2;ratioP2
9052;SDS011;4561;47.450;7.516;2023-08-21T00:02:50;9.45;;;6.47;;
9052;SDS011;4561;47.450;7.516;2023-08-21T00:06:10;8.57;;;6.05;;
9052;SDS011;4561;47.450;7.516;2023-08-21T00:09:31;8.10;;;5.80;;
9052;SDS011;4561;47.450;7.516;2023-08-21T00:12:51;11.00;;;6.07;;
9052;SDS011;4561;47.450;7.516;2023-08-21T00:16:12;8.02;;;6.15;;
9052;SDS011;4561;47.450;7.516;2023-08-21T00:19:32;9.90;;;6.35;;
9052;SDS011;4561;47.450;7.516;2023-08-21T00:22:53;9.90;;;6.07;;
9052;SDS011;4561;47.450;7.516;2023-08-21T00:26:13;7.95;;;5.95;;
9052;SDS011;4561;47.450;7.516;2023-08-21T00:29:33;8.65;;;6.00;;
9052;SDS011;4561;47.450;7.516;2023-08-21T00:32:54;10.07;;;5.82;;
9052;SDS011;4561;47.450;7.516;2023-08-21T00:36:14;9.07;;;6.50;;
9052;SDS011;4561;47.450;7.516;2023-08-21T00:39:39;6.47;;;5.80;;
9052;SDS011;4561;47.450;7.516;2023-08-21T00:43:04;9.77;;;6.20;;
9052;SDS011;4561;47.450;7.516;2023-08-21T00:46:25;6.85;;;6.00;;
9052;SDS011;4561;47.450;7.516;2023-08-21T00:49:48;6.97;;;5.53;;
9052;SDS011;4561;47.450;7.516;2023-08-21T00:53:08;10.68;;;6.35;;
9052;SDS011;4561;47.450;7.516;2023-08-21T00:56:33;10.20;;;6.13;;
9052;SDS011;4561;47.450;7.516;2023-08-21T00:59:53;7.75;;;5.95;;
9052;SDS011;4561;47.450;7.516;2023-08-21T01:03:16;6.70;;;6.03;;
9052;SDS011;4561;47.450;7.516;2023-08-21T01:06:36;9.75;;;6.90;;
9052;SDS011;4561;47.450;7.516;2023-08-21T01:13:44;8.57;;;6.60;;
9052;SDS011;4561;47.450;7.516;2023-08-21T01:17:10;7.25;;;6.20;;
9052;SDS011;4561;47.450;7.516;2023-08-21T01:20:35;8.23;;;6.80;;
9052;SDS011;4561;47.450;7.516;2023-08-21T01:23:56;7.50;;;6.70;;
9052;SDS011;4561;47.450;7.516;2023-08-21T01:27:17;10.20;;;6.60;;
9052;SDS011;4561;47.450;7.516;2023-08-21T01:30:37;8.32;;;6.90;;
9052;SDS011;4561;47.450;7.516;2023-08-21T01:34:01;6.93;;;6.00;;
9052;SDS011;4561;47.450;7.516;2023-08-21T01:37:27;10.52;;;6.65;;
9052;SDS011;4561;47.450;7.516;2023-08-21T01:40:48;9.55;;;6.75;;
9052;SDS011;4561;47.450;7.516;2023-08-21T01:44:08;8.43;;;6.85;;
9052;SDS011;4561;47.450;7.516;2023-08-21T01:47:31;9.68;;;5.95;;
9052;SDS011;4561;47.450;7.516;2023-08-21T01:50:51;10.27;;;6.78;;
9052;SDS011;4561;47.450;7.516;2023-08-21T01:54:15;9.32;;;6.32;;
9052;SDS011;4561;47.450;7.516;2023-08-21T01:57:35;8.48;;;6.63;;
9052;SDS011;4561;47.450;7.516;2023-08-21T02:00:55;8.05;;;6.47;;
9052;SDS011;4561;47.450;7.516;2023-08-21T02:04:16;8.20;;;6.57;;
9052;SDS011;4561;47.450;7.516;2023-08-21T02:07:36;11.05;;;6.35;;
9052;SDS011;4561;47.450;7.516;2023-08-21T02:10:56;10.90;;;6.22;;
9052;SDS011;4561;47.450;7.516;2023-08-21T02:14:17;8.50;;;6.13;;
9052;SDS011;4561;47.450;7.516;2023-08-21T02:17:40;10.07;;;6.68;;
9052;SDS011;4561;47.450;7.516;2023-08-21T02:21:02;7.25;;;6.18;;
9052;SDS011;4561;47.450;7.516;2023-08-21T02:24:22;7.15;;;6.45;;
9052;SDS011;4561;47.450;7.516;2023-08-21T02:27:46;9.32;;;6.70;;
9052;SDS011;4561;47.450;7.516;2023-08-21T02:31:09;9.27;;;6.95;;
9052;SDS011;4561;47.450;7.516;2023-08-21T02:34:30;7.28;;;6.30;;
9052;SDS011;4561;47.450;7.516;2023-08-21T02:37:52;11.10;;;6.85;;
9052;SDS011;4561;47.450;7.516;2023-08-21T02:41:15;10.38;;;6.40;;
9052;SDS011;4561;47.450;7.516;2023-08-21T02:44:35;7.05;;;6.35;;
9052;SDS011;4561;47.450;7.516;2023-08-21T02:47:56;6.88;;;6.20;;
9052;SDS011;4561;47.450;7.516;2023-08-21T02:51:18;10.43;;;6.63;;
9052;SDS011;4561;47.450;7.516;2023-08-21T02:54:41;6.43;;;5.78;;
9052;SDS011;4561;47.450;7.516;2023-08-21T02:58:02;7.35;;;6.65;;
9052;SDS011;4561;47.450;7.516;2023-08-21T03:01:23;8.23;;;6.70;;
9052;SDS011;4561;47.450;7.516;2023-08-21T03:04:43;11.85;;;6.20;;
9052;SDS011;4561;47.450;7.516;2023-08-21T03:08:03;7.28;;;6.63;;
9052;SDS011;4561;47.450;7.516;2023-08-21T03:11:26;9.02;;;6.55;;
9052;SDS011;4561;47.450;7.516;2023-08-21T03:14:49;8.70;;;6.55;;
9052;SDS011;4561;47.450;7.516;2023-08-21T03:18:12;7.72;;;6.60;;
9052;SDS011;4561;47.450;7.516;2023-08-21T03:21:32;11.38;;;7.22;;
9052;SDS011;4561;47.450;7.516;2023-08-21T03:24:52;8.27;;;6.90;;
9052;SDS011;4561;47.450;7.516;2023-08-21T03:28:13;7.30;;;6.60;;
9052;SDS011;4561;47.450;7.516;2023-08-21T03:31:33;7.63;;;6.80;;
9052;SDS011;4561;47.450;7.516;2023-08-21T03:34:54;8.80;;;6.70;;
9052;SDS011;4561;47.450;7.516;2023-08-21T03:38:17;8.82;;;6.97;;
9052;SDS011;4561;47.450;7.516;2023-08-21T03:41:37;11.45;;;6.75;;
9052;SDS011;4561;47.450;7.516;2023-08-21T03:44:58;8.20;;;7.23;;
9052;SDS011;4561;47.450;7.516;2023-08-21T03:48:18;9.67;;;6.70;;
9052;SDS011;4561;47.450;7.516;2023-08-21T03:51:39;7.93;;;6.80;;
9052;SDS011;4561;47.450;7.516;2023-08-21T03:55:02;8.80;;;6.03;;
9052;SDS011;4561;47.450;7.516;2023-08-21T03:58:24;8.67;;;7.40;;
9052;SDS011;4561;47.450;7.516;2023-08-21T04:01:46;7.30;;;6.60;;
9052;SDS011;4561;47.450;7.516;2023-08-21T04:05:06;9.60;;;6.87;;
9052;SDS011;4561;47.450;7.516;2023-08-21T04:08:27;9.23;;;7.67;;
9052;SDS011;4561;47.450;7.516;2023-08-21T04:11:49;7.37;;;6.67;;
9052;SDS011;4561;47.450;7.516;2023-08-21T04:15:10;7.80;;;7.10;;
9052;SDS011;4561;47.450;7.516;2023-08-21T04:18:30;10.03;;;7.10;;
9052;SDS011;4561;47.450;7.516;2023-08-21T04:21:50;10.53;;;7.40;;
9052;SDS011;4561;47.450;7.516;2023-08-21T04:25:11;8.40;;;7.57;;
9052;SDS011;4561;47.450;7.516;2023-08-21T04:28:31;8.20;;;7.50;;
9052;SDS011;4561;47.450;7.516;2023-08-21T04:31:55;9.10;;;7.47;;
9052;SDS011;4561;47.450;7.516;2023-08-21T04:35:15;7.95;;;7.15;;
9052;SDS011;4561;47.450;7.516;2023-08-21T04:38:38;8.27;;;7.30;;
9052;SDS011;4561;47.450;7.516;2023-08-21T04:41:58;10.10;;;7.70;;
9052;SDS011;4561;47.450;7.516;2023-08-21T04:45:18;8.47;;;7.23;;
9052;SDS011;4561;47.450;7.516;2023-08-21T04:48:41;8.00;;;6.90;;
9052;SDS011;4561;47.450;7.516;2023-08-21T04:52:06;10.23;;;7.67;;
9052;SDS011;4561;47.450;7.516;2023-08-21T04:55:27;17.17;;;7.93;;
9052;SDS011;4561;47.450;7.516;2023-08-21T04:58:47;8.63;;;7.77;;
9052;SDS011;4561;47.450;7.516;2023-08-21T05:02:10;8.40;;;7.60;;
9052;SDS011;4561;47.450;7.516;2023-08-21T05:05:30;7.43;;;6.70;;
9052;SDS011;4561;47.450;7.516;2023-08-21T05:08:53;10.03;;;7.93;;
9052;SDS011;4561;47.450;7.516;2023-08-21T05:12:13;7.40;;;6.70;;
9052;SDS011;4561;47.450;7.516;2023-08-21T05:15:34;7.47;;;6.57;;
9052;SDS011;4561;47.450;7.516;2023-08-21T05:18:54;10.83;;;7.50;;
9052;SDS011;4561;47.450;7.516;2023-08-21T05:22:15;8.73;;;7.07;;
9052;SDS011;4561;47.450;7.516;2023-08-21T05:25:35;7.40;;;6.60;;
9052;SDS011;4561;47.450;7.516;2023-08-21T05:28:55;10.87;;;7.13;;
9052;SDS011;4561;47.450;7.516;2023-08-21T05:32:16;9.10;;;6.30;;
9052;SDS011;4561;47.450;7.516;2023-08-21T05:35:36;10.05;;;6.65;;
9052;SDS011;4561;47.450;7.516;2023-08-21T05:38:57;9.32;;;6.78;;
9052;SDS011;4561;47.450;7.516;2023-08-21T05:42:17;9.40;;;6.82;;
9052;SDS011;4561;47.450;7.516;2023-08-21T05:45:37;10.65;;;6.03;;
9052;SDS011;4561;47.450;7.516;2023-08-21T05:48:58;7.22;;;6.50;;
9052;SDS011;4561;47.450;7.516;2023-08-21T05:52:18;6.70;;;6.10;;
9052;SDS011;4561;47.450;7.516;2023-08-21T05:55:39;8.20;;;6.88;;
9052;SDS011;4561;47.450;7.516;2023-08-21T05:59:00;12.77;;;7.53;;
9052;SDS011;4561;47.450;7.516;2023-08-21T06:02:20;8.45;;;6.93;;
9052;SDS011;4561;47.450;7.516;2023-08-21T06:05:40;9.48;;;6.95;;
9052;SDS011;4561;47.450;7.516;2023-08-21T06:09:01;8.98;;;6.68;;
9052;SDS011;4561;47.450;7.516;2023-08-21T06:12:21;8.88;;;6.97;;
9052;SDS011;4561;47.450;7.516;2023-08-21T06:15:43;8.77;;;6.43;;
9052;SDS011;4561;47.450;7.516;2023-08-21T06:19:04;8.68;;;6.85;;
9052;SDS011;4561;47.450;7.516;2023-08-21T06:22:25;9.18;;;6.53;;
9052;SDS011;4561;47.450;7.516;2023-08-21T06:25:47;6.57;;;5.85;;
9052;SDS011;4561;47.450;7.516;2023-08-21T06:29:10;7.30;;;6.40;;
9052;SDS011;4561;47.450;7.516;2023-08-21T06:32:30;8.75;;;6.38;;
9052;SDS011;4561;47.450;7.516;2023-08-21T06:35:51;8.38;;;6.53;;
9052;SDS011;4561;47.450;7.516;2023-08-21T06:39:11;7.55;;;6.82;;
9052;SDS011;4561;47.450;7.516;2023-08-21T06:42:33;8.57;;;6.85;;
9052;SDS011;4561;47.450;7.516;2023-08-21T06:45:56;8.18;;;6.53;;
9052;SDS011;4561;47.450;7.516;2023-08-21T06:49:19;11.70;;;6.93;;
9052;SDS011;4561;47.450;7.516;2023-08-21T06:52:39;7.30;;;6.65;;
9052;SDS011;4561;47.450;7.516;2023-08-21T06:56:00;8.00;;;6.28;;
9052;SDS011;4561;47.450;7.516;2023-08-21T06:59:20;9.25;;;6.45;;
9052;SDS011;4561;47.450;7.516;2023-08-21T07:02:45;10.95;;;6.72;;
9052;SDS011;4561;47.450;7.516;2023-08-21T07:06:10;10.70;;;6.75;;
9052;SDS011;4561;47.450;7.516;2023-08-21T07:09:31;8.07;;;6.70;;
9052;SDS011;4561;47.450;7.516;2023-08-21T07:12:52;7.55;;;6.25;;
9052;SDS011;4561;47.450;7.516;2023-08-21T07:16:13;8.93;;;6.20;;
9052;SDS011;4561;47.450;7.516;2023-08-21T07:19:33;8.98;;;6.50;;
9052;SDS011;4561;47.450;7.516;2023-08-21T07:22:54;7.00;;;6.07;;
9052;SDS011;4561;47.450;7.516;2023-08-21T07:26:16;7.13;;;6.43;;
9052;SDS011;4561;47.450;7.516;2023-08-21T07:29:39;8.60;;;6.30;;
9052;SDS011;4561;47.450;7.516;2023-08-21T07:32:59;7.30;;;6.25;;
9052;SDS011;4561;47.450;7.516;2023-08-21T07:36:20;6.95;;;5.95;;
9052;SDS011;4561;47.450;7.516;2023-08-21T07:39:40;7.90;;;6.15;;
9052;SDS011;4561;47.450;7.516;2023-08-21T07:43:00;7.45;;;6.22;;
9052;SDS011;4561;47.450;7.516;2023-08-21T07:46:21;17.25;;;5.90;;
9052;SDS011;4561;47.450;7.516;2023-08-21T07:49:41;8.52;;;6.30;;
9052;SDS011;4561;47.450;7.516;2023-08-21T07:53:02;9.15;;;6.40;;
9052;SDS011;4561;47.450;7.516;2023-08-21T07:56:22;10.25;;;6.30;;
9052;SDS011;4561;47.450;7.516;2023-08-21T07:59:45;7.05;;;6.28;;
9052;SDS011;4561;47.450;7.516;2023-08-21T08:03:05;9.18;;;5.63;;
9052;SDS011;4561;47.450;7.516;2023-08-21T08:06:28;7.65;;;5.75;;
9052;SDS011;4561;47.450;7.516;2023-08-21T08:09:48;7.57;;;6.18;;
9052;SDS011;4561;47.450;7.516;2023-08-21T08:13:09;11.57;;;6.80;;
9052;SDS011;4561;47.450;7.516;2023-08-21T08:16:32;9.02;;;6.03;;
9052;SDS011;4561;47.450;7.516;2023-08-21T08:19:57;10.32;;;6.43;;
9052;SDS011;4561;47.450;7.516;2023-08-21T08:23:19;9.07;;;6.28;;
9052;SDS011;4561;47.450;7.516;2023-08-21T08:26:43;8.13;;;6.88;;
9052;SDS011;4561;47.450;7.516;2023-08-21T08:30:06;8.60;;;6.25;;
9052;SDS011;4561;47.450;7.516;2023-08-21T08:33:27;9.90;;;6.35;;
9052;SDS011;4561;47.450;7.516;2023-08-21T08:36:47;12.63;;;5.97;;
9052;SDS011;4561;47.450;7.516;2023-08-21T08:40:09;6.68;;;6.00;;
9052;SDS011;4561;47.450;7.516;2023-08-21T08:43:30;7.03;;;5.75;;
9052;SDS011;4561;47.450;7.516;2023-08-21T08:46:51;7.57;;;5.68;;
9052;SDS011;4561;47.450;7.516;2023-08-21T08:50:12;7.85;;;5.70;;
9052;SDS011;4561;47.450;7.516;2023-08-21T08:53:33;7.25;;;6.20;;
9052;SDS011;4561;47.450;7.516;2023-08-21T08:56:54;7.80;;;5.78;;
9052;SDS011;4561;47.450;7.516;2023-08-21T09:00:18;11.68;;;5.95;;
9052;SDS011;4561;47.450;7.516;2023-08-21T09:03:39;7.28;;;5.28;;
9052;SDS011;4561;47.450;7.516;2023-08-21T09:07:07;11.70;;;5.70;;
9052;SDS011;4561;47.450;7.516;2023-08-21T09:10:30;8.00;;;4.97;;
9052;SDS011;4561;47.450;7.516;2023-08-21T09:13:52;7.05;;;5.93;;
9052;SDS011;4561;47.450;7.516;2023-08-21T09:17:13;7.55;;;5.20;;
9052;SDS011;4561;47.450;7.516;2023-08-21T09:20:34;8.52;;;5.53;;
9052;SDS011;4561;47.450;7.516;2023-08-21T09:23:56;8.80;;;5.55;;
9052;SDS011;4561;47.450;7.516;2023-08-21T09:27:18;7.90;;;5.32;;
9052;SDS011;4561;47.450;7.516;2023-08-21T09:30:52;6.75;;;6.05;;
9052;SDS011;4561;47.450;7.516;2023-08-21T09:34:13;10.60;;;5.40;;
9052;SDS011;4561;47.450;7.516;2023-08-21T09:37:34;7.47;;;5.18;;
9052;SDS011;4561;47.450;7.516;2023-08-21T09:40:55;9.80;;;5.78;;
9052;SDS011;4561;47.450;7.516;2023-08-21T09:44:15;10.65;;;5.65;;
9052;SDS011;4561;47.450;7.516;2023-08-21T09:47:37;6.38;;;5.20;;
9052;SDS011;4561;47.450;7.516;2023-08-21T09:50:59;10.25;;;5.75;;
9052;SDS011;4561;47.450;7.516;2023-08-21T09:54:26;8.85;;;5.75;;
9052;SDS011;4561;47.450;7.516;2023-08-21T09:57:46;7.22;;;5.35;;
9052;SDS011;4561;47.450;7.516;2023-08-21T10:01:08;8.63;;;5.32;;
9052;SDS011;4561;47.450;7.516;2023-08-21T10:04:33;7.30;;;5.10;;
9052;SDS011;4561;47.450;7.516;2023-08-21T10:07:58;10.13;;;5.40;;
9052;SDS011;4561;47.450;7.516;2023-08-21T10:11:23;7.95;;;4.97;;
9052;SDS011;4561;47.450;7.516;2023-08-21T10:14:43;8.20;;;5.43;;
9052;SDS011;4561;47.450;7.516;2023-08-21T10:21:49;8.80;;;6.18;;
9052;SDS011;4561;47.450;7.516;2023-08-21T10:25:20;6.45;;;5.85;;
9052;SDS011;4561;47.450;7.516;2023-08-21T10:28:43;8.73;;;6.30;;
9052;SDS011;4561;47.450;7.516;2023-08-21T10:32:13;9.50;;;6.43;;
9052;SDS011;4561;47.450;7.516;2023-08-21T10:35:42;7.78;;;6.50;;
9052;SDS011;4561;47.450;7.516;2023-08-21T10:47:12;13.95;;;9.18;;
9052;SDS011;4561;47.450;7.516;2023-08-21T10:50:39;10.80;;;9.13;;
9052;SDS011;4561;47.450;7.516;2023-08-21T10:54:10;12.43;;;8.82;;
9052;SDS011;4561;47.450;7.516;2023-08-21T10:57:31;13.68;;;9.90;;
9052;SDS011;4561;47.450;7.516;2023-08-21T11:00:56;14.63;;;10.27;;
9052;SDS011;4561;47.450;7.516;2023-08-21T11:04:19;16.02;;;10.80;;
9052;SDS011;4561;47.450;7.516;2023-08-21T11:11:04;13.88;;;9.30;;
9052;SDS011;4561;47.450;7.516;2023-08-21T11:14:27;13.50;;;9.45;;
9052;SDS011;4561;47.450;7.516;2023-08-21T11:17:59;10.50;;;8.77;;
9052;SDS011;4561;47.450;7.516;2023-08-21T11:21:20;27.35;;;9.10;;
9052;SDS011;4561;47.450;7.516;2023-08-21T11:24:48;28.02;;;9.90;;
9052;SDS011;4561;47.450;7.516;2023-08-21T11:28:10;34.60;;;10.02;;
9052;SDS011;4561;47.450;7.516;2023-08-21T11:31:31;11.27;;;9.00;;
9052;SDS011;4561;47.450;7.516;2023-08-21T11:38:16;11.50;;;8.50;;
9052;SDS011;4561;47.450;7.516;2023-08-21T11:41:56;14.10;;;9.02;;
9052;SDS011;4561;47.450;7.516;2023-08-21T11:45:20;12.00;;;8.23;;
9052;SDS011;4561;47.450;7.516;2023-08-21T11:48:41;12.85;;;8.35;;
9052;SDS011;4561;47.450;7.516;2023-08-21T11:52:01;14.25;;;9.95;;
9052;SDS011;4561;47.450;7.516;2023-08-21T11:55:22;10.63;;;9.07;;
9052;SDS011;4561;47.450;7.516;2023-08-21T11:58:43;11.77;;;8.70;;
9052;SDS011;4561;47.450;7.516;2023-08-21T12:02:10;15.35;;;9.10;;
9052;SDS011;4561;47.450;7.516;2023-08-21T12:05:33;13.73;;;8.60;;
9052;SDS011;4561;47.450;7.516;2023-08-21T12:08:54;14.10;;;8.45;;
9052;SDS011;4561;47.450;7.516;2023-08-21T12:12:15;10.77;;;8.55;;
9052;SDS011;4561;47.450;7.516;2023-08-21T12:15:36;9.20;;;8.32;;
9052;SDS011;4561;47.450;7.516;2023-08-21T12:18:58;12.25;;;7.57;;
9052;SDS011;4561;47.450;7.516;2023-08-21T12:22:19;10.50;;;8.68;;
9052;SDS011;4561;47.450;7.516;2023-08-21T12:25:41;9.05;;;7.28;;
9052;SDS011;4561;47.450;7.516;2023-08-21T12:29:02;13.85;;;7.10;;
9052;SDS011;4561;47.450;7.516;2023-08-21T12:32:22;10.68;;;7.13;;
9052;SDS011;4561;47.450;7.516;2023-08-21T12:35:45;10.15;;;7.55;;
9052;SDS011;4561;47.450;7.516;2023-08-21T12:39:06;9.43;;;7.22;;
9052;SDS011;4561;47.450;7.516;2023-08-21T12:42:31;10.65;;;7.00;;
9052;SDS011;4561;47.450;7.516;2023-08-21T12:45:51;11.07;;;7.20;;
9052;SDS011;4561;47.450;7.516;2023-08-21T12:49:12;10.18;;;7.18;;
9052;SDS011;4561;47.450;7.516;2023-08-21T12:52:34;9.77;;;7.10;;
9052;SDS011;4561;47.450;7.516;2023-08-21T12:55:58;11.20;;;7.32;;
9052;SDS011;4561;47.450;7.516;2023-08-21T12:59:24;11.48;;;6.40;;
9052;SDS011;4561;47.450;7.516;2023-08-21T13:02:47;12.63;;;6.38;;
9052;SDS011;4561;47.450;7.516;2023-08-21T13:06:10;10.65;;;6.05;;
9052;SDS011;4561;47.450;7.516;2023-08-21T13:09:30;9.70;;;5.78;;
9052;SDS011;4561;47.450;7.516;2023-08-21T13:12:51;8.70;;;6.18;;
9052;SDS011;4561;47.450;7.516;2023-08-21T13:16:11;12.05;;;6.30;;
9052;SDS011;4561;47.450;7.516;2023-08-21T13:19:32;14.43;;;6.82;;
9052;SDS011;4561;47.450;7.516;2023-08-21T13:22:52;12.23;;;6.35;;
9052;SDS011;4561;47.450;7.516;2023-08-21T13:26:13;12.93;;;7.07;;
9052;SDS011;4561;47.450;7.516;2023-08-21T13:29:33;12.25;;;6.15;;
9052;SDS011;4561;47.450;7.516;2023-08-21T13:32:53;10.05;;;6.38;;
9052;SDS011;4561;47.450;7.516;2023-08-21T13:36:14;8.63;;;6.13;;
9052;SDS011;4561;47.450;7.516;2023-08-21T13:39:38;10.98;;;6.40;;
9052;SDS011;4561;47.450;7.516;2023-08-21T13:43:00;8.65;;;6.00;;
9052;SDS011;4561;47.450;7.516;2023-08-21T13:46:21;10.50;;;6.63;;
9052;SDS011;4561;47.450;7.516;2023-08-21T13:49:41;10.40;;;6.47;;
9052;SDS011;4561;47.450;7.516;2023-08-21T13:53:01;9.77;;;6.47;;
9052;SDS011;4561;47.450;7.516;2023-08-21T13:56:22;9.52;;;6.20;;
9052;SDS011;4561;47.450;7.516;2023-08-21T13:59:42;8.88;;;5.95;;
9052;SDS011;4561;47.450;7.516;2023-08-21T14:03:03;10.32;;;5.95;;
9052;SDS011;4561;47.450;7.516;2023-08-21T14:06:23;7.88;;;5.75;;
9052;SDS011;4561;47.450;7.516;2023-08-21T14:09:44;5.65;;;5.03;;
9052;SDS011;4561;47.450;7.516;2023-08-21T14:13:04;9.30;;;5.70;;
9052;SDS011;4561;47.450;7.516;2023-08-21T14:16:27;10.77;;;5.78;;
9052;SDS011;4561;47.450;7.516;2023-08-21T14:19:48;11.45;;;5.68;;
9052;SDS011;4561;47.450;7.516;2023-08-21T14:23:08;12.23;;;5.50;;
9052;SDS011;4561;47.450;7.516;2023-08-21T14:26:32;8.45;;;5.72;;
9052;SDS011;4561;47.450;7.516;2023-08-21T14:29:52;8.07;;;4.95;;
9052;SDS011;4561;47.450;7.516;2023-08-21T14:33:14;10.15;;;5.47;;
9052;SDS011;4561;47.450;7.516;2023-08-21T14:36:35;10.48;;;5.40;;
9052;SDS011;4561;47.450;7.516;2023-08-21T14:39:59;8.40;;;4.78;;
9052;SDS011;4561;47.450;7.516;2023-08-21T14:43:20;5.80;;;4.43;;
9052;SDS011;4561;47.450;7.516;2023-08-21T14:46:40;7.55;;;4.57;;
9052;SDS011;4561;47.450;7.516;2023-08-21T14:50:01;13.45;;;5.07;;
9052;SDS011;4561;47.450;7.516;2023-08-21T14:53:21;7.75;;;4.95;;
9052;SDS011;4561;47.450;7.516;2023-08-21T14:56:41;8.45;;;5.00;;
9052;SDS011;4561;47.450;7.516;2023-08-21T15:00:04;7.25;;;4.50;;
9052;SDS011;4561;47.450;7.516;2023-08-21T15:03:25;7.32;;;4.47;;
9052;SDS011;4561;47.450;7.516;2023-08-21T15:06:45;7.22;;;4.50;;
9052;SDS011;4561;47.450;7.516;2023-08-21T15:10:06;10.85;;;4.25;;
9052;SDS011;4561;47.450;7.516;2023-08-21T15:13:29;7.82;;;4.35;;
9052;SDS011;4561;47.450;7.516;2023-08-21T15:16:49;9.25;;;4.00;;
9052;SDS011;4561;47.450;7.516;2023-08-21T15:20:10;8.57;;;3.80;;
9052;SDS011;4561;47.450;7.516;2023-08-21T15:23:34;9.77;;;3.92;;
9052;SDS011;4561;47.450;7.516;2023-08-21T15:26:59;8.30;;;4.45;;
9052;SDS011;4561;47.450;7.516;2023-08-21T15:30:23;6.97;;;3.95;;
9052;SDS011;4561;47.450;7.516;2023-08-21T15:33:43;7.80;;;3.97;;
9052;SDS011;4561;47.450;7.516;2023-08-21T15:37:07;5.00;;;3.25;;
9052;SDS011;4561;47.450;7.516;2023-08-21T15:40:28;3.80;;;2.78;;
9052;SDS011;4561;47.450;7.516;2023-08-21T15:43:49;8.77;;;3.47;;
9052;SDS011;4561;47.450;7.516;2023-08-21T15:47:09;9.82;;;3.67;;
9052;SDS011;4561;47.450;7.516;2023-08-21T15:50:30;8.73;;;3.70;;
9052;SDS011;4561;47.450;7.516;2023-08-21T15:53:52;5.93;;;3.47;;
9052;SDS011;4561;47.450;7.516;2023-08-21T15:57:13;4.65;;;3.60;;
9052;SDS011;4561;47.450;7.516;2023-08-21T16:00:33;6.18;;;3.50;;
9052;SDS011;4561;47.450;7.516;2023-08-21T16:03:57;6.80;;;3.83;;
9052;SDS011;4561;47.450;7.516;2023-08-21T16:07:19;4.15;;;3.50;;
9052;SDS011;4561;47.450;7.516;2023-08-21T16:10:42;6.20;;;3.42;;
9052;SDS011;4561;47.450;7.516;2023-08-21T16:14:02;6.65;;;3.50;;
9052;SDS011;4561;47.450;7.516;2023-08-21T16:17:27;4.70;;;3.88;;
9052;SDS011;4561;47.450;7.516;2023-08-21T16:20:47;5.60;;;4.25;;
9052;SDS011;4561;47.450;7.516;2023-08-21T16:24:10;7.40;;;4.85;;
9052;SDS011;4561;47.450;7.516;2023-08-21T16:27:31;5.05;;;3.47;;
9052;SDS011;4561;47.450;7.516;2023-08-21T16:30:51;9.70;;;3.80;;
9052;SDS011;4561;47.450;7.516;2023-08-21T16:34:11;12.52;;;3.88;;
9052;SDS011;4561;47.450;7.516;2023-08-21T16:37:33;4.50;;;3.40;;
9052;SDS011;4561;47.450;7.516;2023-08-21T16:40:57;5.00;;;3.40;;
9052;SDS011;4561;47.450;7.516;2023-08-21T16:44:17;6.10;;;3.33;;
9052;SDS011;4561;47.450;7.516;2023-08-21T16:47:41;3.50;;;2.80;;
9052;SDS011;4561;47.450;7.516;2023-08-21T16:51:02;6.20;;;2.67;;
9052;SDS011;4561;47.450;7.516;2023-08-21T16:54:22;5.13;;;3.08;;
9052;SDS011;4561;47.450;7.516;2023-08-21T16:57:45;9.60;;;2.80;;
9052;SDS011;4561;47.450;7.516;2023-08-21T17:01:05;5.32;;;3.08;;
9052;SDS011;4561;47.450;7.516;2023-08-21T17:04:28;5.53;;;3.03;;
9052;SDS011;4561;47.450;7.516;2023-08-21T17:07:48;5.05;;;3.50;;
9052;SDS011;4561;47.450;7.516;2023-08-21T17:11:09;6.00;;;3.00;;
9052;SDS011;4561;47.450;7.516;2023-08-21T17:14:29;8.13;;;3.35;;
9052;SDS011;4561;47.450;7.516;2023-08-21T17:17:50;4.32;;;2.92;;
9052;SDS011;4561;47.450;7.516;2023-08-21T17:21:10;5.40;;;2.90;;
9052;SDS011;4561;47.450;7.516;2023-08-21T17:24:32;8.73;;;3.08;;
9052;SDS011;4561;47.450;7.516;2023-08-21T17:27:53;6.35;;;3.40;;
9052;SDS011;4561;47.450;7.516;2023-08-21T17:31:18;7.28;;;3.28;;
9052;SDS011;4561;47.450;7.516;2023-08-21T17:34:38;6.35;;;3.55;;
9052;SDS011;4561;47.450;7.516;2023-08-21T17:37:59;4.07;;;3.13;;
9052;SDS011;4561;47.450;7.516;2023-08-21T17:41:21;6.68;;;3.38;;
9052;SDS011;4561;47.450;7.516;2023-08-21T17:44:44;7.57;;;3.30;;
9052;SDS011;4561;47.450;7.516;2023-08-21T17:48:04;5.57;;;3.60;;
9052;SDS011;4561;47.450;7.516;2023-08-21T17:51:25;6.07;;;3.63;;
9052;SDS011;4561;47.450;7.516;2023-08-21T17:54:48;7.65;;;3.60;;
9052;SDS011;4561;47.450;7.516;2023-08-21T17:58:11;5.18;;;3.63;;
9052;SDS011;4561;47.450;7.516;2023-08-21T18:01:31;5.65;;;3.50;;
9052;SDS011;4561;47.450;7.516;2023-08-21T18:04:52;5.70;;;3.42;;
9052;SDS011;4561;47.450;7.516;2023-08-21T18:08:12;8.35;;;3.50;;
9052;SDS011;4561;47.450;7.516;2023-08-21T18:11:33;11.70;;;3.72;;
9052;SDS011;4561;47.450;7.516;2023-08-21T18:14:54;9.18;;;4.13;;
9052;SDS011;4561;47.450;7.516;2023-08-21T18:18:19;6.75;;;4.18;;
9052;SDS011;4561;47.450;7.516;2023-08-21T18:21:41;5.40;;;4.18;;
9052;SDS011;4561;47.450;7.516;2023-08-21T18:25:02;12.85;;;4.50;;
9052;SDS011;4561;47.450;7.516;2023-08-21T18:28:24;12.57;;;4.53;;
9052;SDS011;4561;47.450;7.516;2023-08-21T18:31:45;7.63;;;4.22;;
9052;SDS011;4561;47.450;7.516;2023-08-21T18:35:06;7.72;;;4.30;;
9052;SDS011;4561;47.450;7.516;2023-08-21T18:38:26;6.18;;;4.43;;
9052;SDS011;4561;47.450;7.516;2023-08-21T18:41:47;7.85;;;4.70;;
9052;SDS011;4561;47.450;7.516;2023-08-21T18:45:11;7.45;;;4.72;;
9052;SDS011;4561;47.450;7.516;2023-08-21T18:48:33;8.25;;;5.13;;
9052;SDS011;4561;47.450;7.516;2023-08-21T18:51:54;5.65;;;4.63;;
9052;SDS011;4561;47.450;7.516;2023-08-21T18:55:14;6.18;;;4.68;;
9052;SDS011;4561;47.450;7.516;2023-08-21T18:58:36;5.80;;;4.95;;
9052;SDS011;4561;47.450;7.516;2023-08-21T19:01:56;9.75;;;5.03;;
9052;SDS011;4561;47.450;7.516;2023-08-21T19:05:17;7.43;;;4.72;;
9052;SDS011;4561;47.450;7.516;2023-08-21T19:08:40;5.80;;;4.38;;
9052;SDS011;4561;47.450;7.516;2023-08-21T19:12:00;8.52;;;4.68;;
9052;SDS011;4561;47.450;7.516;2023-08-21T19:15:21;6.00;;;4.30;;
9052;SDS011;4561;47.450;7.516;2023-08-21T19:18:44;8.18;;;5.32;;
9052;SDS011;4561;47.450;7.516;2023-08-21T19:22:04;8.52;;;4.65;;
9052;SDS011;4561;47.450;7.516;2023-08-21T19:25:25;8.68;;;5.18;;
9052;SDS011;4561;47.450;7.516;2023-08-21T19:28:45;5.28;;;4.32;;
9052;SDS011;4561;47.450;7.516;2023-08-21T19:32:08;7.47;;;4.80;;
9052;SDS011;4561;47.450;7.516;2023-08-21T19:35:31;6.38;;;5.22;;
9052;SDS011;4561;47.450;7.516;2023-08-21T19:38:53;6.38;;;4.50;;
9052;SDS011;4561;47.450;7.516;2023-08-21T19:42:13;6.18;;;4.80;;
9052;SDS011;4561;47.450;7.516;2023-08-21T19:45:36;5.70;;;4.88;;
9052;SDS011;4561;47.450;7.516;2023-08-21T19:48:56;7.05;;;4.47;;
9052;SDS011;4561;47.450;7.516;2023-08-21T19:52:17;4.70;;;4.15;;
9052;SDS011;4561;47.450;7.516;2023-08-21T19:55:37;9.25;;;4.63;;
9052;SDS011;4561;47.450;7.516;2023-08-21T19:58:58;5.47;;;4.20;;
9052;SDS011;4561;47.450;7.516;2023-08-21T20:02:18;5.13;;;4.38;;
9052;SDS011;4561;47.450;7.516;2023-08-21T20:05:41;5.68;;;4.20;;
9052;SDS011;4561;47.450;7.516;2023-08-21T20:09:04;7.15;;;3.97;;
9052;SDS011;4561;47.450;7.516;2023-08-21T20:12:25;9.35;;;4.30;;
9052;SDS011;4561;47.450;7.516;2023-08-21T20:15:45;6.43;;;4.15;;
9052;SDS011;4561;47.450;7.516;2023-08-21T20:19:09;4.15;;;3.75;;
9052;SDS011;4561;47.450;7.516;2023-08-21T20:22:30;7.20;;;3.92;;
9052;SDS011;4561;47.450;7.516;2023-08-21T20:25:50;6.35;;;4.13;;
9052;SDS011;4561;47.450;7.516;2023-08-21T20:29:10;6.20;;;3.90;;
9052;SDS011;4561;47.450;7.516;2023-08-21T20:32:34;6.68;;;4.05;;
9052;SDS011;4561;47.450;7.516;2023-08-21T20:35:59;5.40;;;4.32;;
9052;SDS011;4561;47.450;7.516;2023-08-21T20:39:20;9.18;;;4.13;;
9052;SDS011;4561;47.450;7.516;2023-08-21T20:42:40;5.20;;;4.05;;
9052;SDS011;4561;47.450;7.516;2023-08-21T20:46:01;4.95;;;4.40;;
9052;SDS011;4561;47.450;7.516;2023-08-21T20:49:24;5.00;;;4.28;;
9052;SDS011;4561;47.450;7.516;2023-08-21T20:52:45;7.65;;;4.25;;
9052;SDS011;4561;47.450;7.516;2023-08-21T20:56:07;7.68;;;4.35;;
9052;SDS011;4561;47.450;7.516;2023-08-21T20:59:30;7.13;;;4.43;;
9052;SDS011;4561;47.450;7.516;2023-08-21T21:02:53;4.75;;;4.20;;
9052;SDS011;4561;47.450;7.516;2023-08-21T21:06:13;5.68;;;3.75;;
9052;SDS011;4561;47.450;7.516;2023-08-21T21:09:33;5.70;;;4.60;;
9052;SDS011;4561;47.450;7.516;2023-08-21T21:12:54;5.45;;;4.50;;